Date,TemperatureHighF,TemperatureAvgF,TemperatureLowF,DewpointHighF,DewpointAvgF,DewpointLowF,HumidityHigh,HumidityAvg,HumidityLow,PressureMaxIn,PressureMinIn,WindSpeedMaxMPH,WindSpeedAvgMPH,GustSpeedMaxMPH,PrecipitationSumIn
2013-1-1,56,47,37,53,43,32,91,88,80,30.19,29.93,0,0,0,0.09
2013-1-2,42,36,27,32,28,23,84,75,62,30.27,30.18,0,0,0,0.00
2013-1-3,43,36,26,32,29,22,88,75,61,30.38,30.26,0,0,0,0.00
2013-1-4,40,38,33,36,34,31,91,87,76,30.45,30.32,0,0,0,0.22
2013-1-5,56,45,35,43,39,32,91,79,59,30.32,30.17,0,0,0,0.04
2013-1-6,57,42,28,35,31,25,91,68,37,30.35,30.23,0,0,0,0.00
2013-1-7,57,46,27,39,34,24,88,66,47,30.27,30.01,0,0,0,0.00
2013-1-8,52,49,46,49,45,39,91,89,75,30.01,29.84,0,0,0,1.24
2013-1-9,56,53,49,54,50,46,92,91,90,29.98,29.82,0,0,0,1.25
2013-1-10,65,53,42,48,44,40,92,75,49,30.00,29.93,0,0,0,0.02
2013-1-11,71,58,48,62,52,41,91,81,63,29.97,29.78,0,0,0,0.00
2013-1-12,72,66,46,66,58,0,92,81,59,29.85,29.64,0,0,0,0.00
2013-1-13,50,40,34,35,29,25,74,64,50,30.13,29.87,0,0,0,0.00
2013-1-14,49,36,31,30,25,22,71,65,48,30.20,30.05,0,0,0,0.00
2013-1-15,38,34,30,32,30,22,90,85,71,30.20,30.05,0,0,0,0.01
2013-1-16,51,37,26,24,21,18,78,56,30,30.28,30.14,0,0,0,0.00
2013-1-17,64,44,31,38,32,23,84,64,36,30.42,30.26,0,0,0,0.00
2013-1-18,67,48,28,39,33,25,89,61,32,30.45,30.26,0,0,0,0.00
2013-1-19,69,50,36,47,40,32,90,71,43,30.26,30.10,0,0,0,0.00
2013-1-20,77,57,42,51,44,38,90,67,32,30.19,30.05,0,0,0,0.00
2013-1-21,71,54,41,53,46,38,90,77,50,30.20,30.09,0,0,0,0.00
2013-1-27,78,67,60,63,60,56,90,81,58,30.05,29.91,0,0,0,0.00
2013-1-28,77,69,66,65,64,63,91,83,66,29.99,29.83,0,0,0,0.00
2013-1-29,81,67,52,66,55,25,91,68,31,29.85,29.51,0,0,0,0.00
2013-1-30,56,48,33,28,21,16,61,36,22,30.18,29.77,0,0,0,0.00
2013-1-31,38,35,32,21,20,18,61,54,47,30.18,30.15,0,0,0,0.00
2013-2-15,62,49,32,40,35,23,85,60,42,30.34,30.11,0,0,0,0.00
2013-2-16,69,45,25,32,26,20,81,51,23,30.40,30.16,0,0,0,0.00
2013-2-17,72,57,45,50,36,25,74,47,30,30.16,29.92,0,0,0,0.00
2013-2-18,82,66,53,58,45,26,83,54,17,30.06,29.81,0,0,0,0.00
2013-2-19,70,54,34,33,30,25,74,42,21,30.22,30.03,0,0,0,0.00
2013-2-20,64,55,51,61,46,28,91,72,35,30.07,29.60,0,0,0,0.02
2013-2-21,78,64,46,63,41,22,91,51,14,29.84,29.54,0,0,0,0.00
2013-2-22,60,47,37,36,31,25,81,56,37,30.01,29.83,0,0,0,0.00
2013-2-23,74,52,32,40,32,25,77,51,25,30.01,29.84,0,0,0,0.00
2013-2-24,75,57,42,56,46,32,87,68,42,29.88,29.55,0,0,0,0.00
2013-2-25,60,54,43,57,36,22,90,55,24,29.82,29.51,0,0,0,0.00
2013-2-26,70,52,36,31,28,25,66,42,22,29.92,29.79,0,0,0,0.00
2013-2-27,61,50,36,35,27,19,57,41,26,30.19,29.82,0,0,0,0.00
2013-2-28,61,44,32,32,25,19,65,49,27,30.28,30.14,0,0,0,0.00
2013-3-1,71,49,28,31,23,16,74,43,17,30.25,30.08,0,0,0,0.00
2013-3-2,62,45,31,30,27,22,73,51,29,30.37,30.21,0,0,0,0.00
2013-3-3,78,59,42,42,32,24,56,39,22,30.21,29.86,0,0,0,0.00
2013-3-4,92,68,52,51,45,40,80,49,21,29.86,29.67,0,0,0,0.00
2013-3-5,66,54,33,53,26,12,70,39,17,30.32,29.72,0,0,0,0.00
2013-3-6,67,45,26,23,18,12,62,37,17,30.39,30.16,0,0,0,0.00
2013-3-7,74,57,40,52,42,19,80,59,40,30.19,30.04,0,0,0,0.00
2013-3-8,63,59,56,60,56,51,90,87,78,30.10,29.96,0,0,0,0.06
2013-3-9,72,64,60,66,61,56,91,89,79,29.96,29.62,0,0,0,0.08
2013-3-10,63,56,40,59,40,31,91,59,36,30.09,29.68,0,0,0,0.69
2013-3-11,66,47,29,34,29,24,85,55,24,30.13,29.96,0,0,0,0.00
2013-3-12,82,61,46,39,33,25,55,37,20,30.18,30.01,0,0,0,0.00
2013-3-13,81,60,41,43,37,32,76,45,24,30.38,30.18,0,0,0,0.00
2013-3-14,80,62,46,53,45,34,86,58,32,30.33,30.17,0,0,0,0.00
2013-3-15,82,66,52,55,49,41,88,59,31,30.19,29.95,0,0,0,0.00
2013-3-16,85,68,56,60,54,49,89,64,32,29.96,29.71,0,0,0,0.00
2013-3-17,88,71,64,62,59,56,83,68,38,29.79,29.64,0,0,0,0.00
2013-3-18,88,72,59,63,52,40,90,56,21,29.92,29.67,0,0,0,0.00
2013-3-19,86,65,43,62,52,38,86,65,39,29.96,29.80,0,0,0,0.00
2013-3-20,73,58,50,52,46,35,90,68,27,30.20,29.97,0,0,0,0.17
2013-3-21,77,63,53,59,51,38,83,65,52,29.99,29.59,0,0,0,0.00
2013-3-22,91,71,58,66,60,48,89,71,42,29.74,29.60,0,0,0,0.00
2013-3-23,83,62,49,61,51,45,89,70,38,29.77,29.57,0,0,0,0.00
2013-3-24,61,50,37,57,32,22,87,53,27,30.12,29.66,0,0,0,0.00
2013-3-25,60,44,30,24,21,16,72,44,20,30.33,30.12,0,0,0,0.00
2013-3-26,70,48,28,28,22,18,70,40,18,30.41,30.22,0,0,0,0.00
2013-3-27,70,55,40,46,37,22,72,53,37,30.26,30.09,0,0,0,0.00
2013-3-28,73,62,54,58,53,46,82,74,60,30.15,30.07,0,0,0,0.00
2013-3-29,79,68,59,58,56,54,87,66,47,30.13,30.01,0,0,0,0.00
2013-3-30,84,70,62,63,59,56,89,71,45,30.07,29.86,0,0,0,0.00
2013-3-31,86,69,57,65,60,53,88,75,43,29.94,29.80,0,0,0,0.06
2013-4-1,89,70,54,66,59,51,90,71,41,30.02,29.86,0,0,0,0.00
2013-4-2,78,66,56,65,61,52,90,83,62,29.96,29.81,0,0,0,1.10
2013-4-3,54,49,46,51,47,43,91,91,90,30.10,29.83,0,0,0,0.51
2013-4-4,61,49,44,45,42,38,91,76,54,30.17,30.06,0,0,0,0.02
2013-4-5,78,55,35,51,42,31,90,66,34,30.21,30.01,0,0,0,0.00
2013-5-10,90,72,61,65,60,57,90,71,35,30.00,29.81,0,0,0,0.81
2013-5-11,80,68,58,61,56,51,90,68,41,30.13,29.99,0,0,0,0.00
2013-5-12,82,65,51,56,51,44,89,62,35,30.23,30.08,0,0,0,0.00
2013-5-13,91,68,47,57,49,41,85,55,27,30.21,30.10,0,0,0,0.00
2013-5-14,88,73,60,65,60,54,87,64,38,30.18,29.96,0,0,0,0.00
2013-5-15,86,73,63,71,66,59,90,80,56,30.05,29.79,0,0,0,1.41
2013-5-16,92,77,68,74,68,65,90,77,50,29.83,29.69,0,0,0,0.08
2013-5-17,95,81,71,76,71,67,88,72,49,29.87,29.76,0,0,0,0.00
2013-5-18,95,80,69,71,67,63,89,68,43,29.89,29.78,0,0,0,0.00
2013-5-19,92,79,69,72,68,64,87,70,50,29.82,29.70,0,0,0,0.00
2013-5-20,94,77,71,72,68,66,87,74,47,29.81,29.68,0,0,0,0.00
2013-5-21,88,77,67,73,68,58,87,74,58,29.87,29.70,0,0,0,0.00
2013-5-22,98,78,55,70,60,51,88,60,29,29.91,29.79,0,0,0,0.00
2013-5-23,90,79,72,72,70,68,88,74,55,30.02,29.86,0,0,0,0.00
2013-5-24,80,71,67,72,67,63,90,86,68,30.09,29.98,0,0,0,0.92
2013-5-25,82,72,67,72,67,64,91,85,64,30.11,30.00,0,0,0,1.69
2013-5-26,87,76,70,74,69,66,90,81,63,30.06,29.94,0,0,0,0.04
2013-5-27,89,76,69,73,68,65,89,77,56,29.99,29.82,0,0,0,0.00
2013-5-28,89,77,70,74,68,66,87,74,53,29.88,29.74,0,0,0,0.00
2013-5-29,86,78,71,73,70,67,87,76,62,29.87,29.68,0,0,0,0.00
2013-5-30,88,78,72,73,70,68,88,77,58,29.83,29.73,0,0,0,0.00
2013-5-31,91,80,74,76,71,69,87,76,59,29.86,29.74,0,0,0,0.00
2013-6-1,99,83,74,76,72,69,86,70,47,29.89,29.77,0,0,0,0.00
2013-6-2,86,76,66,72,64,59,90,70,43,30.05,29.88,0,0,0,1.15
2013-6-3,95,78,60,70,63,56,89,64,38,29.98,29.82,0,0,0,0.00
2013-6-4,95,81,68,71,66,63,89,64,37,29.89,29.79,0,0,0,0.00
2013-6-5,96,80,68,72,67,64,89,67,41,29.87,29.74,0,0,0,0.00
2013-6-6,96,76,66,71,65,62,90,71,38,29.92,29.77,0,0,0,0.00
2013-6-7,86,74,66,65,61,54,86,65,44,30.00,29.87,0,0,0,0.00
2013-6-8,90,76,57,71,62,52,86,64,46,29.92,29.78,0,0,0,0.00
2013-6-9,95,79,68,74,69,63,86,73,49,29.96,29.82,0,0,0,0.00
2013-6-10,100,81,68,75,68,64,89,68,34,29.99,29.90,0,0,0,0.00
2013-6-11,97,81,72,73,69,65,89,69,44,30.02,29.94,0,0,0,0.00
2013-6-12,96,82,73,74,70,68,88,71,44,30.03,29.93,0,0,0,0.00
2013-6-13,100,80,72,75,70,65,89,75,43,30.05,29.92,0,0,0,0.00
2013-6-14,90,79,71,75,71,67,89,78,58,29.99,29.90,0,0,0,0.00
2013-6-15,91,82,74,75,72,68,89,73,55,29.99,29.90,0,0,0,0.00
2013-6-16,98,83,73,73,70,66,89,67,41,30.01,29.88,0,0,0,0.00
2013-6-17,99,84,74,74,70,65,87,66,39,30.00,29.85,0,0,0,0.00
2013-6-18,98,82,69,73,69,65,89,67,42,30.00,29.87,0,0,0,0.09
2013-6-19,99,83,73,72,69,65,88,64,39,29.96,29.89,0,0,0,0.00
2013-6-20,98,84,73,72,69,64,87,62,39,30.04,29.93,0,0,0,0.00
2013-6-21,98,84,74,72,67,60,87,60,37,30.05,29.95,0,0,0,0.00
2013-6-22,99,86,72,71,68,62,87,58,35,30.03,29.88,0,0,0,0.00
2013-6-23,98,78,73,70,68,62,87,72,34,29.97,29.88,0,0,0,0.00
2013-6-24,99,83,73,72,68,64,87,64,37,30.01,29.88,0,0,0,0.00
2013-6-25,100,85,75,70,68,66,84,61,35,29.98,29.86,0,0,0,0.00
2013-6-26,102,83,74,74,70,67,84,67,35,29.96,29.88,0,0,0,0.00
2013-7-2,92,82,57,61,53,48,86,40,25,30.07,29.95,0,0,0,0.00
2013-7-3,98,79,57,60,50,46,76,41,20,30.02,29.89,0,0,0,0.00
2013-7-4,98,81,68,66,59,51,87,51,27,29.98,29.87,0,0,0,0.00
2013-7-5,103,86,67,68,62,56,87,50,24,29.97,29.82,0,0,0,0.00
2013-7-6,103,85,66,70,64,59,86,54,28,29.93,29.81,0,0,0,0.00
2013-7-7,103,84,70,72,69,64,87,64,32,29.97,29.86,0,0,0,0.00
2013-7-8,91,80,73,74,70,66,88,72,47,30.09,29.96,0,0,0,0.00
2013-7-9,101,90,72,71,69,67,88,53,35,30.12,29.99,0,0,0,0.00
2013-7-10,105,87,71,72,69,64,88,59,30,30.08,29.91,0,0,0,0.00
2013-7-11,106,88,74,72,68,62,85,56,28,30.00,29.87,0,0,0,0.00
2013-7-12,107,88,72,71,65,61,84,52,24,29.96,29.87,0,0,0,0.00
2013-7-13,106,87,70,67,63,58,80,48,23,29.98,29.84,0,0,0,0.00
2013-7-14,105,84,75,70,65,58,73,55,27,29.92,29.84,0,0,0,0.02
2013-7-15,75,72,70,70,68,66,89,86,73,30.00,29.88,0,0,0,0.98
2013-7-16,92,78,71,74,70,67,90,78,51,30.10,29.99,0,0,0,0.06
2013-7-17,84,72,69,72,68,66,90,87,67,30.15,30.09,0,0,0,1.35
2013-7-18,95,78,69,75,68,66,91,76,44,30.15,29.98,0,0,0,0.00
2013-7-19,99,81,69,72,68,64,90,68,38,30.06,29.90,0,0,0,0.00
2013-7-20,99,81,70,72,69,66,89,69,40,29.98,29.85,0,0,0,0.00
2013-7-21,99,81,71,74,71,68,90,73,42,29.94,29.86,0,0,0,0.00
2013-7-22,98,84,75,75,72,69,87,70,42,29.97,29.88,0,0,0,0.00
2013-7-23,97,85,76,73,70,65,84,65,39,30.00,29.86,0,0,0,0.00
2013-7-24,98,85,73,75,71,68,88,65,41,30.00,29.87,0,0,0,0.00
2013-7-25,102,84,73,72,69,64,88,65,34,30.01,29.93,0,0,0,0.00
2013-7-26,103,89,73,74,70,67,86,57,36,30.00,29.87,0,0,0,0.00
2013-7-27,86,78,72,73,70,66,89,76,55,29.97,29.89,0,0,0,0.00
2013-7-28,98,82,68,76,70,64,89,70,47,29.94,29.84,0,0,0,0.00
2013-7-29,98,84,75,72,70,65,86,66,34,30.00,29.91,0,0,0,0.00
2013-7-30,98,85,74,74,69,63,86,63,35,30.07,29.95,0,0,0,0.00
2013-7-31,104,86,72,70,67,63,88,59,29,30.07,29.93,0,0,0,0.00
2013-8-1,101,74,0,70,60,0,77,58,35,30.01,29.89,0,0,0,0.00
2013-8-2,82,63,0,66,51,0,71,62,58,29.94,29.92,0,0,0,0.00
2013-8-3,98,83,74,72,70,68,86,66,39,30.00,29.92,0,0,0,0.00
2013-8-4,101,88,74,74,71,67,87,60,39,30.06,29.92,0,0,0,0.00
2013-8-5,104,86,73,72,68,64,85,58,30,30.02,29.86,0,0,0,0.00
2013-8-6,103,80,73,73,70,65,86,72,30,29.94,29.84,0,0,0,0.00
2013-8-7,107,89,74,73,69,60,85,56,27,29.92,29.79,0,0,0,0.00
2013-8-8,105,89,74,71,66,59,85,52,29,29.89,29.77,0,0,0,0.00
2013-8-9,106,88,73,70,63,53,87,51,19,29.95,29.85,0,0,0,0.00
2013-8-10,104,88,71,72,67,62,84,55,28,30.04,29.92,0,0,0,0.00
2013-8-11,102,84,74,72,70,67,84,65,36,30.07,29.94,0,0,0,0.00
2013-8-12,101,87,82,68,67,65,63,52,35,30.00,29.94,0,0,0,0.00
2013-8-13,106,87,75,71,69,64,85,61,27,30.02,29.88,0,0,0,0.00
2013-8-14,108,85,75,70,68,66,84,62,27,29.99,29.89,0,0,0,0.01
2013-8-15,94,79,69,73,69,66,88,74,47,30.02,29.90,0,0,0,0.60
2013-8-16,90,77,69,73,67,64,89,75,45,30.05,29.92,0,0,0,0.04
2013-8-17,93,78,66,70,64,58,89,66,38,30.04,29.92,0,0,0,0.00
2013-8-18,97,77,62,66,60,57,85,58,32,30.04,29.96,0,0,0,0.00
2013-8-19,99,81,67,66,63,55,82,57,32,30.04,29.91,0,0,0,0.00
2013-8-20,99,82,65,68,64,60,87,58,30,30.01,29.92,0,0,0,0.00
2013-8-21,101,84,71,75,69,66,87,63,37,30.06,29.95,0,0,0,0.06
2013-8-22,102,82,68,73,68,65,88,67,38,30.08,29.92,0,0,0,0.00
2013-8-23,104,83,70,72,68,64,87,64,33,30.01,29.89,0,0,0,0.00
2013-8-24,103,88,71,70,68,65,85,53,33,30.04,29.92,0,0,0,0.00
2013-8-25,99,82,69,71,68,64,86,64,37,30.07,29.99,0,0,0,0.00
2013-8-26,93,79,72,72,69,67,88,73,46,30.11,30.01,0,0,0,0.00
2013-8-27,88,77,72,76,70,66,88,79,54,30.10,30.00,0,0,0,0.10
2013-8-28,101,82,71,73,68,65,89,66,35,30.10,29.99,0,0,0,0.00
2013-8-29,103,84,68,70,66,63,88,60,30,30.08,29.94,0,0,0,0.00
2013-8-30,106,87,72,68,65,62,72,50,28,30.02,29.87,0,0,0,0.00
2013-8-31,108,89,74,70,66,65,76,51,28,29.93,29.81,0,0,0,0.00
2013-9-1,103,86,73,72,67,64,82,57,30,29.91,29.80,0,0,0,0.00
2013-9-2,104,85,73,72,70,66,86,63,31,29.97,29.84,0,0,0,0.04
2013-9-3,103,84,67,70,66,63,88,58,31,30.00,29.87,0,0,0,0.00
2013-9-4,104,87,74,70,68,65,84,57,34,30.03,29.92,0,0,0,0.08
2013-9-5,101,84,70,71,68,66,88,64,35,30.09,29.98,0,0,0,0.00
2013-9-6,103,82,69,72,67,65,87,64,35,30.08,29.94,0,0,0,0.00
2013-9-7,100,80,72,73,68,65,88,70,33,30.03,29.89,0,0,0,0.00
2013-9-8,97,79,68,72,68,64,89,72,40,29.97,29.87,0,0,0,0.00
2013-9-9,95,79,69,75,68,65,88,73,42,29.98,29.89,0,0,0,0.02
2013-9-10,97,79,70,72,68,66,89,73,39,30.04,29.95,0,0,0,0.00
2013-9-11,97,81,71,72,67,61,89,67,34,30.08,29.97,0,0,0,0.00
2013-9-12,99,83,66,71,65,60,89,60,31,30.05,29.90,0,0,0,0.00
2013-9-13,101,84,67,69,64,59,87,55,28,29.96,29.81,0,0,0,0.00
2013-9-14,101,83,66,68,64,60,81,56,32,29.93,29.83,0,0,0,0.00
2013-9-15,98,82,68,72,67,64,87,64,38,30.00,29.90,0,0,0,0.00
2013-9-16,95,79,70,74,70,66,88,76,46,30.04,29.95,0,0,0,0.23
2013-9-17,96,79,70,74,70,67,89,75,46,30.05,29.92,0,0,0,0.02
2013-9-18,99,81,71,74,68,65,89,69,38,30.00,29.87,0,0,0,0.00
2013-9-19,96,80,73,74,71,68,89,77,44,29.94,29.81,0,0,0,0.02
2013-9-20,78,73,68,74,70,65,90,89,88,29.86,29.78,0,0,0,1.18
2013-9-21,82,69,56,65,60,50,91,77,38,29.92,29.82,0,0,0,0.02
2013-9-22,85,66,51,56,50,47,89,61,29,29.90,29.77,0,0,0,0.00
2013-9-23,94,72,51,58,52,47,88,56,27,29.83,29.73,0,0,0,0.00
2013-9-24,95,77,58,62,57,52,84,54,32,29.92,29.82,0,0,0,0.00
2013-9-25,100,80,62,66,60,56,85,55,32,29.90,29.77,0,0,0,0.00
2013-9-26,96,80,69,70,62,53,83,59,30,29.89,29.80,0,0,0,0.00
2013-9-27,89,79,73,75,72,68,87,79,60,29.90,29.80,0,0,0,0.06
2013-9-28,90,79,73,76,72,70,90,80,57,29.97,29.85,0,0,0,1.57
2013-9-29,74,66,61,70,62,58,91,87,72,30.04,29.92,0,0,0,0.86
2013-9-30,92,71,54,64,58,52,91,68,32,29.94,29.79,0,0,0,0.02
2013-10-1,94,78,65,72,67,55,91,72,45,29.90,29.82,0,0,0,0.00
2013-10-2,93,80,73,74,70,67,90,72,47,29.94,29.84,0,0,0,0.00
2013-10-3,93,79,72,72,70,67,89,75,49,29.92,29.82,0,0,0,0.00
2013-10-4,83,76,72,70,68,66,87,77,60,29.88,29.83,0,0,0,0.00
2013-10-5,91,71,59,69,57,41,87,62,44,30.05,29.86,0,0,0,0.00
2013-10-6,78,64,50,52,46,39,88,56,25,30.12,30.02,0,0,0,0.90
2013-10-7,87,59,45,54,44,40,83,63,25,30.15,30.02,0,0,0,0.00
2013-10-8,88,66,50,54,48,43,83,58,29,30.06,29.95,0,0,0,0.00
2013-10-9,86,67,54,62,55,47,88,68,42,30.03,29.93,0,0,0,0.00
2013-10-10,88,71,62,67,62,58,89,74,46,30.00,29.86,0,0,0,0.00
2013-10-11,89,76,69,72,68,63,88,80,57,29.92,29.82,0,0,0,0.00
2013-10-12,92,80,74,74,71,69,90,77,53,29.99,29.88,0,0,0,0.02
2013-10-13,75,67,64,71,64,61,90,90,88,30.11,29.99,0,0,0,6.63
2013-10-14,81,77,71,73,71,68,90,82,73,29.99,29.90,0,0,0,0.00
2013-10-15,85,74,56,71,67,53,90,80,63,29.99,29.86,0,0,0,0.00
2013-10-16,56,54,52,53,51,49,91,91,90,30.04,29.96,0,0,0,1.04
2013-10-23,47,47,46,41,41,41,82,81,81,30.09,30.08,0,0,0,0.00
2013-10-24,84,64,50,50,47,42,77,56,30,30.19,30.09,0,0,0,0.00
2013-10-25,82,64,50,61,55,46,89,73,49,30.27,30.16,0,0,0,0.00
2013-10-26,65,63,63,62,60,58,90,89,83,30.18,30.12,0,0,0,0.00
2013-11-2,71,54,47,39,38,37,68,57,29,30.20,30.18,0,0,0,0.00
2013-11-3,72,55,39,49,40,34,83,62,35,30.19,29.97,0,0,0,0.00
2013-11-4,66,61,58,60,57,49,90,85,77,30.02,29.93,0,0,0,0.02
2013-11-5,76,67,62,66,63,60,91,87,72,29.98,29.87,0,0,0,0.00